Flight Track Log - Related Links

Times and Time Zones

All times are in EDT time to prevent confusion due to time zone crossing. See the GJS6204 flight status page for this flight to view local times or setup timezone preferences in your user account.

Time Position Orientation Groundspeed Altitude Reporting Facility
EDT Latitude Longitude Course Direction KTS MPH feet Rate Location/Type
Sat 06:47:59 PM 40.7500 -73.8333 114° Southeast 162 186 1,700  Level New York TRACON
Sat 06:48:59 PM 40.7333 -73.7833 27° Northeast 207 238 3,900 2,200 Climbing New York TRACON
Sat 06:49:59 PM 40.7833 -73.7500 21° North 218 251 6,100 2,250 Climbing New York TRACON
Sat 06:50:59 PM 40.8500 -73.7167 30° Northeast 261 300 8,400 2,000 Climbing New York TRACON
Sat 06:51:59 PM 40.9167 -73.6667 25° Northeast 292 336 10,100 1,395 Climbing New York TRACON
Sat 06:54:04 PM 41.0819 -73.5664 26° Northeast 318 366 12,700 1,654 Climbing Boston Center
Sat 06:55:04 PM 41.1783 -73.5047 26° Northeast 329 379 15,200 2,100 Climbing Boston Center
Sat 06:56:04 PM 41.2581 -73.4533 25° Northeast 341 392 16,900 1,750 Climbing Boston Center
Sat 06:57:04 PM 41.3586 -73.3914 25° Northeast 354 407 18,700 1,750 Climbing Boston Center
Sat 06:58:04 PM 41.4550 -73.3319 38° Northeast 361 415 20,400 1,500 Climbing Boston Center
Sat 06:59:04 PM 41.5222 -73.2608 44° Northeast 373 429 21,700 1,450 Climbing Boston Center
Sat 07:00:04 PM 41.6125 -73.1453 44° Northeast 381 438 23,300 1,300 Climbing Boston Center
Sat 07:01:04 PM 41.6944 -73.0406 43° Northeast 392 451 24,300 1,000 Climbing Boston Center
Sat 07:02:04 PM 41.7844 -72.9272 43° Northeast 410 472 25,300 1,050 Climbing Boston Center
Sat 07:03:04 PM 41.8850 -72.7997 43° Northeast 439 505 26,400 1,050 Climbing Boston Center
Sat 07:04:04 PM 41.9769 -72.6831 44° Northeast 444 511 27,400 950 Climbing Boston Center
Sat 07:05:04 PM 42.0586 -72.5772 42° Northeast 444 511 28,300 900 Climbing Boston Center
Sat 07:06:04 PM 42.1544 -72.4597 44° Northeast 449 517 29,200 1,000 Climbing Boston Center
Sat 07:07:04 PM 42.2608 -72.3222 44° Northeast 464 534 30,300 800 Climbing Boston Center
Sat 07:08:04 PM 42.3564 -72.1956 43° Northeast 464 534 30,800 350 Climbing Boston Center
Sat 07:09:04 PM 42.4539 -72.0714 44° Northeast 475 547 31,000 100 Climbing Boston Center
Sat 07:10:04 PM 42.5536 -71.9411 44° Northeast 481 554 31,000  Level Boston Center
Sat 07:11:04 PM 42.6508 -71.8133 43° Northeast 481 554 31,000  Level Boston Center
Sat 07:12:04 PM 42.7481 -71.6881 43° Northeast 475 547 31,000  Level Boston Center
Sat 07:13:04 PM 42.8450 -71.5650 45° Northeast 475 547 31,000  Level Boston Center
Sat 07:14:04 PM 42.9358 -71.4389 42° Northeast 464 534 31,000  Level Boston Center
Sat 07:15:04 PM 43.0367 -71.3125 46° Northeast 470 541 31,000  Level Boston Center
Sat 07:16:04 PM 43.1128 -71.2031 44° Northeast 457 526 31,000  Level Boston Center
Sat 07:17:04 PM 43.2153 -71.0669 44° Northeast 452 520 31,000 -650 Level Boston Center
Sat 07:18:04 PM 43.3056 -70.9478 46° Northeast 452 520 29,700 -1,300 Descending Boston Center
Sat 07:19:04 PM 43.3933 -70.8228 44° Northeast 447 514 28,400 -1,300 Descending Boston Center
Sat 07:20:04 PM 43.4814 -70.7061 45° Northeast 447 514 27,100 -1,350 Descending Boston Center
Sat 07:21:04 PM 43.5692 -70.5833 46° Northeast 447 514 25,700 -1,450 Descending Boston Center
Sat 07:22:04 PM 43.6525 -70.4658 44° Northeast 442 509 24,200 -1,400 Descending Boston Center
Sat 07:23:04 PM 43.7258 -70.3686 45° Northeast 411 473 22,900 -1,500 Descending Boston Center
Sat 07:24:04 PM 43.8153 -70.2447 44° Northeast 411 473 21,200 -1,950 Descending Boston Center
Sat 07:25:04 PM 43.8944 -70.1381 46° Northeast 397 457 19,000 -1,950 Descending Boston Center
Sat 07:26:04 PM 43.9694 -70.0314 45° Northeast 392 451 17,300 -1,950 Descending Boston Center
Sat 07:27:04 PM 44.0381 -69.9361 46° Northeast 370 426 15,100 -1,950 Descending Boston Center
Sat 07:28:04 PM 44.1069 -69.8378 46° Northeast 363 418 13,400 -1,650 Descending Boston Center
Sat 07:29:04 PM 44.1694 -69.7483 47° Northeast 327 376 11,800 -1,200 Descending Boston Center
Sat 07:30:04 PM 44.2297 -69.6586 44° Northeast 317 365 11,000 -1,000 Descending Boston Center
Sat 07:31:04 PM 44.2883 -69.5803 47° Northeast 310 357 9,800 -1,350 Descending Boston Center
Sat 07:32:04 PM 44.3364 -69.5083 49° Northeast 277 319 8,300 -1,250 Descending Boston Center
Sat 07:33:04 PM 44.3844 -69.4306 57° Northeast 260 299 7,300 -1,000 Descending Boston Center
Sat 07:34:04 PM 44.4239 -69.3442 59° Northeast 254 292 6,300 -1,000 Descending Boston Center
Sat 07:35:04 PM 44.4611 -69.2578 55° Northeast 259 298 5,300 -650 Descending Boston Center
Sat 07:36:04 PM 44.5025 -69.1742 56° Northeast 259 298 5,000 -350 Descending Boston Center
Sat 07:37:04 PM 44.5439 -69.0872 58° Northeast 264 304 4,600 -750 Descending Boston Center
Sat 07:38:04 PM 44.5811 -69.0036 55° Northeast 264 304 3,500 -800 Descending Boston Center
Sat 07:39:04 PM 44.6183 -68.9283 61° Northeast 253 291 3,000 -500 Descending Boston Center
Sat 07:40:04 PM 44.6453 -68.8597 52° Northeast 222 255 2,500 -300 Descending Boston Center
Sat 07:41:04 PM 44.6769 -68.8022 47° Northeast 196 226 2,400 -300 Descending Boston Center
Sat 07:42:04 PM 44.7086 -68.7536 12° North 182 209 1,900 -400 Descending Boston Center
Sat 07:43:04 PM 44.7458 -68.7425 314° West 135 155 1,600 -500 Descending Boston Center
Sat 07:44:04 PM 44.7744 -68.7844 315° West 112 129 900 -650 Descending Boston Center
Sat 07:45:04 PM 44.7961 -68.8153 315° West 118 136 300 -600 Descending Boston Center

Login

Don't have an account? Register now (free) for customized features, flight alerts, and more!